August 14, 2022

Time Code Weather Temp. Visibility Ceiling Wind METAR/SPECI
08:25
V
22 °C 10 km+ - 100° 100° 5 kt METAR EHDL 140625Z AUTO 10005KT 030V200 9999 NCD 22/14 Q1010 BLU
07:55
V
21 °C 10 km+ 35,000 ft 090° 090° 4 kt METAR EHDL 140555Z AUTO 09004KT 350V150 9999 OVC350 21/14 Q1010 BLU
07:25
V
20 °C 10 km+ - 100° 100° 3 kt METAR EHDL 140525Z AUTO 10003KT 9999 NCD 20/14 Q1010 BLU
06:55
V
19 °C 10 km+ - 090° 090° 3 kt METAR EHDL 140455Z AUTO 09003KT 010V180 9999 NCD 19/13 Q1010 BLU
06:25
V
19 °C 10 km+ - 090° 090° 4 kt METAR EHDL 140425Z AUTO 09004KT 9999 NCD 19/13 Q1011 BLU
05:55
V
19 °C 10 km+ - Var Var 4 kt METAR EHDL 140355Z AUTO VRB04KT 9999 NCD 19/13 Q1011 BLU
05:25
V
19 °C 10 km+ - 100° 100° 3 kt METAR EHDL 140325Z AUTO 10003KT 9999 NCD 19/13 Q1011 BLU
04:55
V
20 °C 10 km+ - 110° 110° 5 kt METAR EHDL 140255Z AUTO 11005KT 360V160 9999 NCD 20/13 Q1011 BLU
04:25
V
20 °C 10 km+ - 090° 090° 4 kt METAR EHDL 140225Z AUTO 09004KT 350V140 9999 NCD 20/13 Q1011 BLU
03:55
V
21 °C 10 km+ - 090° 090° 5 kt METAR EHDL 140155Z AUTO 09005KT 360V150 9999 NCD 21/13 Q1011 BLU
03:25
V
21 °C 10 km+ - 090° 090° 6 kt METAR EHDL 140125Z AUTO 09006KT 020V180 9999 NCD 21/13 Q1012 BLU
02:55
V
21 °C 10 km+ - 100° 100° 6 kt METAR EHDL 140055Z AUTO 10006KT 330V140 9999 NCD 21/13 Q1012 BLU
02:25
V
22 °C 10 km+ - Var Var 6 kt METAR EHDL 140025Z AUTO VRB06KT 9999 NCD 22/13 Q1012 BLU RMK CB INFO NOT AVBL
01:55
V
23 °C 10 km+ - Var Var 5 kt METAR EHDL 132355Z AUTO VRB05KT 9999 NCD 23/13 Q1013 BLU
01:25
V
23 °C 10 km+ - Var Var 5 kt METAR EHDL 132325Z AUTO VRB05KT 9999 NCD 23/12 Q1013 BLU
00:55
V
23 °C 10 km+ - 090° 090° 4 kt METAR EHDL 132255Z AUTO 09004KT 010V140 9999 NCD 23/11 Q1013 BLU
00:25
V
21 °C 10 km+ - 070° 070° 3 kt METAR EHDL 132225Z AUTO 07003KT 360V110 9999 NCD 21/11 Q1013 BLU

August 13, 2022

Time Code Weather Temp. Visibility Ceiling Wind METAR/SPECI
23:55
V
21 °C 10 km+ - Var Var 2 kt METAR EHDL 132155Z AUTO VRB02KT 9999 NCD 21/11 Q1013 BLU
23:25
V
21 °C 10 km+ - Var Var 1 kt METAR EHDL 132125Z AUTO VRB01KT 9999 NCD 21/10 Q1013 BLU
22:55
V
21 °C 10 km+ - Var 000° 0 kt METAR EHDL 132055Z AUTO 00000KT 9999 NCD 21/10 Q1013 BLU
22:25
V
21 °C 10 km+ - Var Var 1 kt METAR EHDL 132025Z AUTO VRB01KT 9999 NCD 21/10 Q1013 BLU
21:55
V
22 °C 10 km+ - Var Var 2 kt METAR EHDL 131955Z AUTO VRB02KT 9999 NCD 22/11 Q1013 BLU
21:25
V
23 °C 10 km+ - 050° 050° 4 kt METAR EHDL 131925Z AUTO 05004KT 020V100 9999 NCD 23/11 Q1013 BLU
20:55
V
26 °C 10 km+ - 070° 070° 4 kt METAR EHDL 131855Z AUTO 07004KT 030V090 9999 NCD 26/10 Q1013 BLU
20:25
V
29 °C 10 km+ - 080° 080° 6 kt METAR EHDL 131825Z AUTO 08006KT 020V140 9999 NCD 29/09 Q1013 BLU
19:55
V
30 °C 10 km+ - 090° 090° 6 kt METAR EHDL 131755Z AUTO 09006KT 020V180 9999 NCD 30/08 Q1013 BLU
19:25
V
30 °C 10 km+ - 100° 100° 6 kt METAR EHDL 131725Z AUTO 10006KT 040V180 9999 NCD 30/08 Q1013 BLU
18:55
V
31 °C 10 km+ - 120° 120° 8 kt METAR EHDL 131655Z AUTO 12008KT 050V200 9999 NCD 31/08 Q1013 BLU
18:25
V
31 °C 10 km+ - 110° 110° 7 kt METAR EHDL 131625Z AUTO 11007KT 020V190 9999 NCD 31/08 Q1014 BLU
17:55
V
31 °C 10 km+ - Var Var 9 kt METAR EHDL 131555Z AUTO VRB09KT 9999 NCD 31/07 Q1014 BLU
17:25
V
31 °C 10 km+ - Var Var 6 kt METAR EHDL 131525Z AUTO VRB06KT 9999 NCD 31/07 Q1014 BLU
16:55
V
31 °C 10 km+ - Var Var 7 kt METAR EHDL 131455Z AUTO VRB07KT 9999 NCD 31/06 Q1015 BLU
16:25
V
31 °C 10 km+ - Var Var 5 kt METAR EHDL 131425Z AUTO VRB05KT 9999 NCD 31/06 Q1015 BLU
15:55
V
32 °C 10 km+ - Var Var 8 kt METAR EHDL 131355Z AUTO VRB08KT 9999 NCD 32/07 Q1015 BLU
15:25
V
31 °C 10 km+ - 100° 100° 6 kt METAR EHDL 131325Z AUTO 10006KT 070V220 9999 NCD 31/07 Q1016 BLU
14:55
V
31 °C 10 km+ - Var Var 7 kt METAR EHDL 131255Z AUTO VRB07KT 9999 NCD 31/06 Q1016 BLU
14:25
V
31 °C 10 km+ - Var Var 5 - 15 kt METAR EHDL 131225Z AUTO VRB05G15KT 9999 NCD 31/07 Q1016 BLU
13:55
V
30 °C 10 km+ - Var Var 9 kt METAR EHDL 131155Z AUTO VRB09KT 9999 NCD 30/07 Q1016 BLU
13:25
V
31 °C 10 km+ - Var Var 9 kt METAR EHDL 131125Z AUTO VRB09KT 9999 NCD 31/09 Q1017 BLU
12:55
V
30 °C 10 km+ - 150° 150° 6 kt METAR EHDL 131055Z AUTO 15006KT 070V240 9999 NCD 30/08 Q1017 BLU
12:25
V
29 °C 10 km+ - 140° 140° 8 kt METAR EHDL 131025Z AUTO 14008KT 080V240 9999 NCD 29/08 Q1017 BLU
11:55
V
29 °C 10 km+ - Var Var 7 kt METAR EHDL 130955Z AUTO VRB07KT 9999 NCD 29/08 Q1017 BLU
11:25
V
29 °C 10 km+ - Var Var 7 kt METAR EHDL 130925Z AUTO VRB07KT 9999 NCD 29/09 Q1017 BLU
10:55
V
28 °C 10 km+ - 140° 140° 7 kt METAR EHDL 130855Z AUTO 14007KT 040V210 9999 NCD 28/08 Q1017 BLU
10:25
V
27 °C 10 km+ - Var Var 7 kt METAR EHDL 130825Z AUTO VRB07KT 9999 NCD 27/08 Q1017 BLU
09:55
V
26 °C 10 km+ - 140° 140° 7 kt METAR EHDL 130755Z AUTO 14007KT 020V190 9999 NCD 26/09 Q1017 BLU
09:25
V
25 °C 10 km+ - Var Var 8 kt METAR EHDL 130725Z AUTO VRB08KT 9999 NCD 25/10 Q1017 BLU
08:55
V
24 °C 10 km+ - 120° 120° 5 kt METAR EHDL 130655Z AUTO 12005KT 040V190 9999 NCD 24/09 Q1017 BLU
08:25
V
22 °C 10 km+ - Var Var 6 kt METAR EHDL 130625Z AUTO VRB06KT 9999 NCD 22/09 Q1017 BLU
07:55
V
21 °C 10 km+ - Var Var 6 kt METAR EHDL 130555Z AUTO VRB06KT 9999 NCD 21/09 Q1017 BLU
07:25
V
20 °C 10 km+ - 100° 100° 3 kt METAR EHDL 130525Z AUTO 10003KT 9999 NCD 20/08 Q1017 BLU
06:55
V
18 °C 10 km+ - Var Var 4 kt METAR EHDL 130455Z AUTO VRB04KT 9999 NCD 18/08 Q1017 BLU
06:25
V
17 °C 10 km+ - Var Var 1 kt METAR EHDL 130425Z AUTO VRB01KT 9999 NCD 17/08 Q1017 BLU
05:55
V
18 °C 10 km+ - 090° 090° 3 kt METAR EHDL 130355Z AUTO 09003KT 9999 NCD 18/08 Q1017 BLU
05:25
V
19 °C 10 km+ - Var Var 3 kt METAR EHDL 130325Z AUTO VRB03KT 9999 NCD 19/07 Q1017 BLU
04:55
V
19 °C 10 km+ - Var Var 5 kt METAR EHDL 130255Z AUTO VRB05KT 9999 NCD 19/07 Q1017 BLU
04:25
V
19 °C 10 km+ - Var Var 3 kt METAR EHDL 130225Z AUTO VRB03KT 9999 NCD 19/07 Q1017 BLU
03:55
V
20 °C 10 km+ - 110° 110° 4 kt METAR EHDL 130155Z AUTO 11004KT 020V160 9999 NCD 20/07 Q1017 BLU
03:25
V
20 °C 10 km+ - 100° 100° 5 kt METAR EHDL 130125Z AUTO 10005KT 030V180 9999 NCD 20/07 Q1017 BLU
02:55
V
20 °C 10 km+ - Var Var 4 kt METAR EHDL 130055Z AUTO VRB04KT 9999 NCD 20/07 Q1017 BLU
02:25
V
20 °C 10 km+ - Var Var 3 kt METAR EHDL 130025Z AUTO VRB03KT 9999 NCD 20/07 Q1017 BLU RMK CB INFO NOT AVBL
01:55
V
21 °C 10 km+ - 090° 090° 3 kt METAR EHDL 122355Z AUTO 09003KT 360V170 9999 NCD 21/07 Q1017 BLU
01:25
V
22 °C 10 km+ - 090° 090° 5 kt METAR EHDL 122325Z AUTO 09005KT 9999 NCD 22/07 Q1017 BLU
00:55
V
23 °C 10 km+ - 080° 080° 5 kt METAR EHDL 122255Z AUTO 08005KT 360V150 9999 NCD 23/07 Q1017 BLU
00:25
V
21 °C 10 km+ - 090° 090° 4 kt METAR EHDL 122225Z AUTO 09004KT 020V130 9999 NCD 21/07 Q1017 BLU

August 12, 2022

Time Code Weather Temp. Visibility Ceiling Wind METAR/SPECI
23:55
V
22 °C 10 km+ - 080° 080° 5 kt METAR EHDL 122155Z AUTO 08005KT 010V110 9999 NCD 22/07 Q1017 BLU
23:25
V
21 °C 10 km+ - 080° 080° 5 kt METAR EHDL 122125Z AUTO 08005KT 010V130 9999 NCD 21/08 Q1017 BLU
22:55
V
21 °C 10 km+ - 070° 070° 3 kt METAR EHDL 122055Z AUTO 07003KT 360V090 9999 NCD 21/08 Q1017 BLU
22:25
V
21 °C 10 km+ - 090° 090° 3 kt METAR EHDL 122025Z AUTO 09003KT 020V080 9999 NCD 21/09 Q1017 BLU
21:55
V
21 °C 10 km+ - Var Var 2 kt METAR EHDL 121955Z AUTO VRB02KT 9999 NCD 21/08 Q1017 BLU
21:25
V
22 °C 10 km+ - 070° 070° 3 kt METAR EHDL 121925Z AUTO 07003KT 030V100 9999 NCD 22/09 Q1017 BLU
20:55
V
25 °C 10 km+ - 070° 070° 3 kt METAR EHDL 121855Z AUTO 07003KT 020V100 9999 NCD 25/09 Q1017 BLU
20:25
V
29 °C 10 km+ - 110° 110° 6 kt METAR EHDL 121825Z AUTO 11006KT 030V190 9999 NCD 29/07 Q1016 BLU
19:55
V
30 °C 10 km+ - 110° 110° 8 kt METAR EHDL 121755Z AUTO 11008KT 040V190 9999 NCD 30/07 Q1016 BLU
19:25
V
31 °C 10 km+ - 110° 110° 9 kt METAR EHDL 121725Z AUTO 11009KT 9999 NCD 31/06 Q1016 BLU
18:55
V
31 °C 10 km+ - 090° 090° 7 kt METAR EHDL 121655Z AUTO 09007KT 360V170 9999 NCD 31/07 Q1016 BLU
18:25
V
32 °C 10 km+ - Var Var 9 kt METAR EHDL 121625Z AUTO VRB09KT 9999 NCD 32/07 Q1017 BLU
17:55
V
32 °C 10 km+ - Var Var 11 kt METAR EHDL 121555Z AUTO VRB11KT 9999 NCD 32/07 Q1017 BLU
17:25
V
32 °C 10 km+ - Var Var 10 kt METAR EHDL 121525Z AUTO VRB10KT 9999 NCD 32/07 Q1017 BLU
16:55
V
32 °C 10 km+ - Var Var 9 kt METAR EHDL 121455Z AUTO VRB09KT 9999 NCD 32/07 Q1017 BLU
16:25
V
32 °C 10 km+ - Var Var 6 kt METAR EHDL 121425Z AUTO VRB06KT 9999 NCD 32/08 Q1017 BLU
15:55
V
32 °C 10 km+ - Var Var 8 kt METAR EHDL 121355Z AUTO VRB08KT 9999 NCD 32/08 Q1017 BLU
15:25
V
32 °C 10 km+ - Var Var 8 kt METAR EHDL 121325Z AUTO VRB08KT 9999 NCD 32/10 Q1017 BLU
14:55
V
31 °C 10 km+ - Var Var 8 kt METAR EHDL 121255Z AUTO VRB08KT 9999 NCD 31/08 Q1018 BLU
14:25
V
31 °C 10 km+ - Var Var 9 - 23 kt METAR EHDL 121225Z AUTO VRB09G23KT 9999 NCD 31/10 Q1018 BLU
13:55
V
31 °C 10 km+ - Var Var 7 kt METAR EHDL 121155Z AUTO VRB07KT 9999 NCD 31/09 Q1018 BLU
13:25
V
31 °C 10 km+ - Var Var 7 kt METAR EHDL 121125Z AUTO VRB07KT 9999 NCD 31/08 Q1018 BLU
12:55
V
31 °C 10 km+ - Var Var 8 kt METAR EHDL 121055Z AUTO VRB08KT 9999 NCD 31/08 Q1019 BLU
12:25
V
31 °C 10 km+ - Var Var 8 - 21 kt METAR EHDL 121025Z AUTO VRB08G21KT 9999 NCD 31/08 Q1019 BLU
11:55
V
31 °C 10 km+ - Var Var 7 kt METAR EHDL 120955Z AUTO VRB07KT 9999 NCD 31/10 Q1019 BLU
11:25
V
29 °C 10 km+ - Var Var 6 kt METAR EHDL 120925Z AUTO VRB06KT 9999 NCD 29/08 Q1019 BLU
10:55
V
29 °C 10 km+ - 140° 140° 6 kt METAR EHDL 120855Z AUTO 14006KT 020V180 9999 NCD 29/10 Q1020 BLU
10:25
V
28 °C 10 km+ - Var Var 5 kt METAR EHDL 120825Z AUTO VRB05KT 9999 NCD 28/10 Q1020 BLU
09:55
V
27 °C 10 km+ - Var Var 5 kt METAR EHDL 120755Z AUTO VRB05KT 9999 NCD 27/11 Q1020 BLU
09:25
V
25 °C 10 km+ - Var Var 4 kt METAR EHDL 120725Z AUTO VRB04KT 9999 NCD 25/11 Q1019 BLU
08:55
V
24 °C 10 km+ - 100° 100° 6 kt METAR EHDL 120655Z AUTO 10006KT 050V160 9999 NCD 24/11 Q1020 BLU
08:25
V
22 °C 10 km+ - 100° 100° 7 kt METAR EHDL 120625Z AUTO 10007KT 050V200 9999 NCD 22/12 Q1020 BLU
07:55
V
21 °C 10 km+ - 110° 110° 4 kt METAR EHDL 120555Z AUTO 11004KT 030V170 9999 NCD 21/12 Q1020 BLU
07:25
V
19 °C 10 km+ - Var Var 3 kt METAR EHDL 120525Z AUTO VRB03KT 9999 NCD 19/12 Q1019 BLU
06:55
V
17 °C 10 km+ - Var Var 3 kt METAR EHDL 120455Z AUTO VRB03KT 9999 NCD 17/13 Q1019 BLU
Older data

We and third parties follow your internet behavior on our website with cookies. If you continue, we assume you agree with our cookie policy. Learn more